Tiempo atmosférico en la estación meteorológica de San Fernando, Cádiz (28 m.)



Fecha
DESCASC
Temp. máxima en grados centígrados (hora)
DESCASC
Temp. mínima en grados centígrados (hora)
DESCASC
Temp. media en grados centígrados
DESCASC
Racha de viento máxima en m/sg (hora)
DESCASC
Velocidad máxima media en intervalos de 10 minutos(hora)
DESCASC
Precipitaciones diarias en mm
DESCASC
Precipitaciones de 00:00 a 06:00 en mm
DESCASC
Precipitaciones de 06:00 a 12:00 en mm
DESCASC
Precipitaciones de 12:00 a 18:00 en mm
DESCASC
Precipitaciones de 18:00 a 24:00 en mm
DESCASC
21-12-2019 -- (--) -- (--) -- -- (--) -- (--) -- -- -- 0.8 0
11-01-2020 18.7 (16:00) 6.9 (00:00) 12.8 6.67 (14:50) 3.61 (22:20) 0 0 0 0 0
08-01-2020 16.7 (16:20) 7.3 (00:00) 12 4.72 (01:40) 2.5 (04:10) 0 0 0 0 0
04-01-2020 14.6 (16:20) 7.3 (00:00) 11 5.28 (13:20) 2.78 (20:20) 0 0 0 0 0
13-01-2020 17.2 (16:40) 7.7 (00:00) 12.5 5 (14:00) 2.5 (06:30) 0 0 0 0 0
14-01-2020 16.8 (16:10) 8.1 (00:00) 12.4 5.28 (14:30) 2.78 (14:30) 0 0 0 0 0
07-01-2020 18.6 (16:00) 8.2 (00:00) 13.4 6.67 (12:50) 3.61 (04:40) 0 0 0 0 0
12-01-2020 16.8 (16:20) 8.3 (00:00) 12.5 5.28 (13:10) 3.06 (09:20) 0 0 0 0 0
06-01-2020 17.8 (14:50) 8.4 (00:00) 13.1 5.83 (23:50) 3.61 (01:40) 0 0 0 0 0
05-01-2020 17.3 (14:20) 8.8 (00:00) 13 10 (17:40) 4.72 (15:30) 0 0 0 0 0
16-01-2020 18.3 (14:30) 8.9 (00:00) 13.6 7.22 (16:10) 3.89 (16:10) 0 0 0 0 0
10-01-2020 14.9 (17:20) 8.9 (00:00) 11.9 6.11 (15:00) 3.33 (15:00) 0 0 0 0 0
15-01-2020 17.8 (16:00) 9 (00:00) 13.4 10 (13:20) 5 (12:00) 0 0 0 0 0
19-01-2020 16.2 (00:00) 9.5 (00:00) 12.9 13.61 (06:10) 8.33 (06:10) 0.2 0.2 0 0 0
02-01-2020 17.9 (14:00) 9.7 (00:00) 13.8 5.83 (22:00) 3.33 (19:50) 0 0 0 0 0
03-01-2020 16.2 (15:00) 9.8 (00:00) 13 7.22 (16:50) 3.61 (17:10) 0 0 0 0 0
09-01-2020 17 (14:00) 9.9 (00:00) 13.4 7.22 (16:10) 4.72 (16:20) 0 0 0 0 0
17-01-2020 18.2 (13:10) 10.5 (00:00) 14.4 5.83 (03:40) 3.06 (16:00) 0 0 0 0 0
18-01-2020 16.7 (14:50) 10.8 (00:00) 13.8 9.72 (21:00) 6.39 (21:00) 1.8 0.1 0 0.8 0.9
24-12-2019 22.9 (14:40) 11 (00:00) 16.9 9.44 (12:30) 5 (12:30) 0 0 0 0 0
31-12-2019 17.2 (14:10) 11.1 (00:00) 14.2 15.28 (16:10) 7.5 (14:20) 0 0 0 0 0
01-01-2020 19 (14:30) 11.3 (00:00) 15.2 6.94 (02:50) 3.61 (00:50) 0 0 0 0 0
26-12-2019 20.7 (16:40) 12 (00:00) 16.4 6.39 (19:00) 3.33 (05:20) 0 0 0 0 0
30-12-2019 17.2 (14:50) 12.1 (00:00) 14.7 14.44 (11:00) 7.5 (13:30) 0 0 0 0 0
23-12-2019 19.7 (15:30) 12.3 (00:00) 16 7.78 (20:00) 5 (20:10) 0.2 0.1 0.1 0 0
25-12-2019 21.5 (15:30) 12.4 (00:00) 16.9 5 (03:20) 3.06 (02:50) 0 0 0 0 0
29-12-2019 17.3 (14:20) 12.8 (00:00) 15 17.22 (11:50) 8.89 (10:50) 0 0 0 0 0
28-12-2019 18.1 (14:30) 13.5 (00:00) 15.8 15.56 (14:50) 8.33 (15:00) 0 0 0 0 0
22-12-2019 17.8 (15:40) 14.3 (00:00) 16 7.22 (16:30) 4.72 (16:50) 0.2 0.1 0.1 0 0
27-12-2019 19.7 (14:20) 14.5 (00:00) 17.1 13.89 (21:40) 7.78 (14:10) 0 0 0 0 0

Gráficas

Temp. máximas Temp. mínimas Temp. medias Precipitaciones Rachas de viento máximas Velocidades máximas media en intervalos de 10 minutos

Datos horarios

Fecha y hora oficial Temperatura (ºC) Velocidad del viento (km/h) Dirección del viento Racha (km/h) Dirección de racha Precipitación (mm) Presión (hPa) Tendencia (hPa) Humedad (%)
2020-01-19 23:00:00 10.4 15 Nordeste 47 Nordeste 0 1013.4 -0.8 54
2020-01-19 22:00:00 12.3 13 Nordeste 35 Nordeste 0 1013.4 -0.5 51
2020-01-19 21:00:00 12.7 11 Nordeste 26 Nordeste 0 1013.5 -0.7 52
2020-01-19 20:00:00 12.4 8 Nordeste 22 Norte 0 1014.2 0.1 56
2020-01-19 19:00:00 13.2 8 Nordeste 29 Nordeste 0 1013.9 -0.7 53
2020-01-19 18:00:00 13.8 8 Nordeste 23 Nordeste 0 1014.2 -0.9 54
2020-01-19 17:00:00 15.3 6 Norte 24 Norte 0 1014.1 -1.7 47
2020-01-19 16:00:00 15.6 11 Nordeste 25 Norte 0 1014.6 -2.1 47
2020-01-19 15:00:00 15.1 7 Nordeste 24 Noroeste 0 1015.1 -2.9 52
2020-01-19 14:00:00 15.1 5 Norte 27 Noroeste 0 1015.8 -2.9 55
2020-01-19 13:00:00 14.5 13 Noroeste 32 Norte 0 1016.7 -2.1 59
2020-01-19 12:00:00 13.2 18 Noroeste 33 Noroeste 0 1018 -0.7 68
2020-01-19 11:00:00 12.9 16 Noroeste 32 Noroeste 0 1018.7 0.2 71
2020-01-19 10:00:00 12.5 16 Noroeste 33 Noroeste 0 1018.8 0.2 73
2020-01-19 09:00:00 12.1 16 Noroeste 40 Noroeste 0 1018.7 -0.5 72
2020-01-19 08:00:00 12.5 22 Noroeste 39 Noroeste 0 1018.5 -1.3 68
2020-01-19 07:00:00 12.8 26 Noroeste 49 Noroeste 0 1018.6 -1.8 67
2020-01-19 06:00:00 13.3 27 Noroeste 44 Noroeste 0.1 1019.2 -2.2 64
2020-01-19 05:00:00 14.1 26 Noroeste 46 Noroeste 0 1019.8 -2.1 68
2020-01-19 04:00:00 14.3 18 Noroeste 32 Noroeste 0 1020.4 -1.7 74
2020-01-19 03:00:00 14.3 18 Noroeste 32 Noroeste 0 1021.4 -0.4 73
2020-01-19 02:00:00 14.3 21 Noroeste 41 Norte 0 1021.9 -0.5 76
2020-01-19 01:00:00 14 23 Noroeste 48 Noroeste 0.1 1022.1 -0.8 83
2020-01-19 00:00:00 16.2 21 Oeste 35 Oeste 0 1021.8 -1.8 94
2020-01-18 23:00:00 16.1 19 Oeste 32 Sudoeste 0 1022.4 -1.7 94
2020-01-18 22:00:00 16 18 Oeste 33 Oeste 0 1022.9 -1.4 94
2020-01-18 21:00:00 16.3 23 Oeste 35 Oeste 0 1023.6 -0.9 94
2020-01-18 20:00:00 16.1 13 Oeste 31 Sudoeste 0.1 1024.1 -0.7 94
2020-01-18 19:00:00 15.9 13 Oeste 28 Sudoeste 0.8 1024.3 -0.9 94
2020-01-18 18:00:00 16.1 14 Sudoeste 33 Sudoeste 0.7 1024.5 -1.2 92
2020-01-18 17:00:00 16.4 17 Sudoeste 30 Sudoeste 0 1024.8 -1.6 88
2020-01-18 16:00:00 16.5 12 Sudoeste 26 Sudoeste 0 1025.2 -2.4 88
2020-01-18 15:00:00 16.6 9 Sudoeste 24 Sur 0 1025.7 -2.9 90
2020-01-18 14:00:00 16.4 9 Sur 25 Sudoeste 0 1026.4 -2.2 93
2020-01-18 13:00:00 16.1 10 Sur 20 Sur 0.1 1027.6 -0.5 94
2020-01-18 12:00:00 14.7 5 Sudeste 11 Sudeste 0 1028.6 0.9 94
2020-01-18 11:00:00 13.4 4 Sudeste 8 Sudeste 0 1028.6 1.1 94
2020-01-18 10:00:00 12.7 3 Sudeste 9 Sudeste 0 1028.1 1.3 94
2020-01-18 09:00:00 11.9 5 Sudeste 9 Sudeste 0 1027.7 1 94
2020-01-18 08:00:00 11.9 0 Calma 6 Sudoeste 0 1027.5 0.5 94
2020-01-18 07:00:00 11.5 2 Sudeste 8 Sudeste 0 1026.8 -0.5 94
2020-01-18 06:00:00 11.3 0 Calma 9 Sudeste 0 1026.7 -1 94
2020-01-18 05:00:00 11 0 Calma 9 Este 0 1027 -0.9 94
2020-01-18 04:00:00 11.3 4 Este 9 Sudeste 0 1027.3 -1.3 94
2020-01-18 03:00:00 12.2 2 Este 4 Este 0.1 1027.7 -1.1 94
2020-01-18 02:00:00 12.3 4 Este 11 Este 0 1027.9 -0.8 94
2020-01-18 01:00:00 12.7 3 Este 7 Sudeste 0 1028.6 -0.2 94
2020-01-18 00:00:00 13 3 Sudeste 10 Sudeste 0 1028.8 0.2 94
2020-01-17 23:00:00 13.2 3 Este 8 Sudeste 0 1028.7 0.3 94
2020-01-17 22:00:00 13.9 4 Sudeste 10 Sudeste 0 1028.8 0.9 93
2020-01-17 21:00:00 14.1 5 Sudeste 9 Sudeste 0 1028.6 1 92
2020-01-17 20:00:00 14.7 4 Sudeste 9 Sudeste 0 1028.4 0.9 91
2020-01-17 19:00:00 15.7 4 Sur 13 Sur 0 1027.9 0.7 86
2020-01-17 18:00:00 17.2 4 Sudoeste 13 Sudoeste 0 1027.6 0 82
2020-01-17 17:00:00 17.3 8 Sudoeste 18 Sudoeste 0 1027.5 -0.8 83
2020-01-17 16:00:00 16.9 11 Sudoeste 20 Sudoeste 0 1027.2 -1.9 83
2020-01-17 15:00:00 17.3 9 Sudoeste 18 Sudoeste 0 1027.6 -2 83
2020-01-17 14:00:00 17.4 6 Sudoeste 20 Sur 0 1028.3 -1 84
2020-01-17 13:00:00 18 8 Sur 21 Sur 0 1029.1 0.4 85
2020-01-17 12:00:00 17.1 9 Sur 17 Sur 0 1029.6 1.5 90
2020-01-17 11:00:00 14.9 6 Sudeste 12 Sudeste 0 1029.3 1.6 91
2020-01-17 10:00:00 13.5 6 Sudeste 12 Sudeste 0 1028.7 1.6 92
2020-01-17 09:00:00 12.5 6 Sudeste 17 Sudeste 0 1028.1 1.5 91
2020-01-17 08:00:00 11.7 8 Sudeste 15 Sudeste 0 1027.7 1.1 91
2020-01-17 07:00:00 10.6 8 Sudeste 15 Sudeste 0 1027.1 0.5 93
2020-01-17 06:00:00 11 7 Sudeste 16 Sudeste 0 1026.6 -0.1 93
2020-01-17 05:00:00 10.8 9 Sudeste 16 Sudeste 0 1026.6 0 92
2020-01-17 04:00:00 11.1 9 Sudeste 21 Sudeste 0 1026.6 0.1 91
2020-01-17 03:00:00 10.8 9 Sudeste 17 Sudeste 0 1026.7 -0.1 90
2020-01-17 02:00:00 10.9 8 Sudeste 18 Sudeste 0 1026.6 0.3 90
2020-01-17 01:00:00 11.1 10 Sudeste 18 Sudeste 0 1026.5 0.4 90
2020-01-17 00:00:00 11.2 8 Sudeste 15 Sudeste 0 1026.8 0.9 90
2020-01-16 23:00:00 11.6 7 Sudeste 13 Sudeste 0 1026.3 0.9 90
2020-01-16 22:00:00 12.6 5 Sudeste 9 Sudeste 0 1026.1 1.2 90
2020-01-16 21:00:00 13.6 5 Sur 10 Sur 0 1025.9 1.3 88
2020-01-16 20:00:00 14.1 5 Sudeste 15 Sur 0 1025.4 1.2 85
2020-01-16 19:00:00 14.7 6 Sur 14 Sur 0 1024.9 0.8 76
2020-01-16 18:00:00 16.4 7 Sur 23 Sur 0 1024.6 0.7 65
2020-01-16 17:00:00 17.5 8 Sudoeste 26 Sur 0 1024.2 -0.2 68
2020-01-16 16:00:00 17.6 13 Sur 25 Sur 0 1024.1 -0.9 67
2020-01-16 15:00:00 18.3 10 Sur 25 Sur 0 1023.9 -1.3 55
2020-01-16 14:00:00 17.9 8 Sur 19 Sur 0 1024.4 -0.7 61
2020-01-16 13:00:00 16.4 9 Sudoeste 14 Sudoeste 0 1025 0.3 60
2020-01-16 12:00:00 15 5 Este 13 Sudeste 0 1025.2 1.1 66
2020-01-16 11:00:00 13.5 5 Este 10 Este 0 1025.1 1.5 76
2020-01-16 10:00:00 11.1 7 Este 14 Este 0 1024.7 1.4 81
2020-01-16 09:00:00 9.7 9 Este 14 Este 0 1024.1 0.9 77
2020-01-16 08:00:00 9.8 10 Este 15 Este 0 1023.6 0.5 68
2020-01-16 07:00:00 9.3 9 Este 13 Este 0 1023.3 -0.1 62
2020-01-16 06:00:00 9 8 Este 13 Este 0 1023.2 -0.3 62
2020-01-16 05:00:00 9.7 8 Este 12 Sudeste 0 1023.1 -0.5 64
2020-01-16 04:00:00 9.9 6 Este 13 Sudeste 0 1023.4 -0.3 68
2020-01-16 03:00:00 10.6 7 Este 13 Sudeste 0 1023.5 -0.7 68
2020-01-16 02:00:00 10.9 8 Este 15 Sudeste 0 1023.6 -0.5 69
2020-01-16 01:00:00 11.4 6 Sudeste 14 Sudeste 0 1023.7 -0.2 69
2020-01-16 00:00:00 11.5 8 Sudeste 15 Sudeste 0 1024.2 0.3 72
2020-01-15 23:00:00 11.7 6 Sudeste 12 Sudeste 0 1024.1 0.5 73
2020-01-15 22:00:00 12.3 7 Sudeste 14 Sudeste 0 1023.9 0.4 73
2020-01-15 21:00:00 13 8 Sudeste 15 Este 0 1023.9 0.6 74
2020-01-15 20:00:00 14.1 6 Sudeste 12 Sudeste 0 1023.6 0.6 71
2020-01-15 19:00:00 14.8 4 Sudeste 15 Sur 0 1023.5 0.9 69
2020-01-15 18:00:00 16.2 8 Sur 23 Sur 0 1023.3 0.8 64
2020-01-15 17:00:00 17.3 13 Sur 27 Sur 0 1023 0.1 61
2020-01-15 16:00:00 17.7 11 Sur 27 Sudoeste 0 1022.6 -0.5 61
2020-01-15 15:00:00 17.6 15 Sur 33 Sur 0 1022.5 -0.9 62
2020-01-15 14:00:00 17.5 14 Sur 36 Sur 0 1022.9 -0.2 63
2020-01-15 13:00:00 16.6 15 Sur 33 Sur 0 1023.1 0.8 66
2020-01-15 12:00:00 15.6 18 Sur 32 Sur 0 1023.4 1.5 73
2020-01-15 11:00:00 14.2 5 Sudeste 15 Sur 0 1023.1 1.7 85
2020-01-15 10:00:00 10.9 6 Sudeste 15 Sudeste 0 1022.3 1.7 92
2020-01-15 09:00:00 9.1 9 Sudeste 17 Sudeste 0 1021.9 1.6 93
2020-01-15 08:00:00 9.2 7 Sudeste 20 Sudeste 0 1021.4 0.9 93
2020-01-15 07:00:00 9.3 9 Sudeste 17 Sudeste 0 1020.6 0 92
2020-01-15 06:00:00 9.3 10 Sudeste 17 Sudeste 0 1020.3 -0.4 92
2020-01-15 05:00:00 9.2 8 Este 16 Sudeste 0 1020.5 -0.1 91
2020-01-15 04:00:00 9.6 9 Sudeste 16 Sudeste 0 1020.6 -0.5 89
2020-01-15 03:00:00 9.9 9 Sudeste 18 Sudeste 0 1020.7 -0.6 86
2020-01-15 02:00:00 10.3 8 Sudeste 17 Sudeste 0 1020.6 -0.6 82
2020-01-15 01:00:00 10.7 7 Sudeste 14 Sudeste 0 1021.1 0.1 79
2020-01-15 00:00:00 11.2 8 Sudeste 14 Sudeste 0 1021.3 0.3 76
2020-01-14 23:00:00 11.4 6 Sudeste 12 Sudeste 0 1021.2 0.3 76
2020-01-14 22:00:00 11.7 4 Sudeste 9 Sudeste 0 1021 0.1 74
2020-01-14 21:00:00 12.3 4 Sudeste 9 Sudeste 0 1021 0.4 73
2020-01-14 20:00:00 12.9 4 Sudeste 8 Sudeste 0 1020.9 0.6 69
2020-01-14 19:00:00 13.9 3 Sudoeste 8 Oeste 0 1020.9 1 60
2020-01-14 18:00:00 15 6 Sudoeste 15 Sudoeste 0 1020.6 0.5 56
2020-01-14 17:00:00 15.9 6 Sudoeste 17 Sudoeste 0 1020.3 -0.4 54
2020-01-14 16:00:00 16.7 6 Sur 17 Oeste 0 1019.9 -1.7 55
2020-01-14 15:00:00 15.5 8 Sudoeste 19 Oeste 0 1020.1 -2.2 56
2020-01-14 14:00:00 15.6 9 Sudoeste 14 Oeste 0 1020.7 -1.4 49
2020-01-14 13:00:00 14 4 Oeste 10 Oeste 0 1021.6 0.4 68
2020-01-14 12:00:00 12.5 2 Norte 6 Noroeste 0 1022.3 1.6 78
2020-01-14 11:00:00 11 5 Noroeste 12 Sudeste 0 1022.1 1.5 82
2020-01-14 10:00:00 8.8 7 Sudeste 14 Sudeste 0 1021.2 1.1 86
2020-01-14 09:00:00 8.3 5 Este 9 Este 0 1020.7 0.8 87
2020-01-14 08:00:00 8.6 5 Este 7 Sudeste 0 1020.6 0.5 86
2020-01-14 07:00:00 8.5 4 Este 10 Este 0 1020.1 -0.1 85
2020-01-14 06:00:00 8.9 7 Este 11 Este 0 1019.9 -0.4 86
2020-01-14 05:00:00 8.6 5 Nordeste 12 Norte 0 1020.1 -0.5 89
2020-01-14 04:00:00 9.3 3 Norte 9 Norte 0 1020.2 -1 87
2020-01-14 03:00:00 9.7 2 Sudeste 9 Sudeste 0 1020.3 -1.2 86
2020-01-14 02:00:00 10.3 5 Este 9 Este 0 1020.6 -0.9 83
2020-01-14 01:00:00 11 3 Este 7 Este 0 1021.2 -0.4 81
2020-01-14 00:00:00 11.4 4 Este 9 Este 0 1021.5 -0.3 81
2020-01-13 23:00:00 11.1 7 Este 12 Este 0 1021.5 -0.4 83
2020-01-13 22:00:00 11.6 6 Este 11 Este 0 1021.6 -0.4 82
2020-01-13 21:00:00 13.2 0 Calma 5 Sudoeste 0 1021.8 0.1 75
2020-01-13 20:00:00 13.6 3 Sudoeste 6 Sudoeste 0 1021.9 0.5 74
2020-01-13 19:00:00 14.2 3 Oeste 9 Oeste 0 1022 0.4 70
2020-01-13 18:00:00 15.1 6 Oeste 13 Oeste 0 1021.7 -0.1 65
2020-01-13 17:00:00 16.6 9 Sudoeste 14 Sudoeste 0 1021.4 -1.4 55
2020-01-13 16:00:00 16.1 6 Noroeste 13 Oeste 0 1021.6 -2.1 58
2020-01-13 15:00:00 15.9 6 Oeste 14 Norte 0 1021.8 -2.3 61
2020-01-13 14:00:00 15.4 7 Noroeste 18 Noroeste 0 1022.8 -1.3 63
2020-01-13 13:00:00 13.7 4 Nordeste 11 Norte 0 1023.7 0.2 70
2020-01-13 12:00:00 12.3 4 Norte 8 Norte 0 1024.1 0.9 77
2020-01-13 11:00:00 11.3 2 Este 8 Norte 0 1024.1 1.3 82
2020-01-13 10:00:00 8.7 0 Calma 7 Nordeste 0 1023.5 0.8 88
2020-01-13 09:00:00 7.8 2 Nordeste 8 Nordeste 0 1023.2 0.3 91
2020-01-13 08:00:00 8.6 3 Nordeste 12 Este 0 1022.8 -0.7 91
2020-01-13 07:00:00 9.4 8 Este 14 Este 0 1022.7 -1.2 91
2020-01-13 06:00:00 9.1 8 Este 12 Este 0 1022.9 -0.9 91
2020-01-13 05:00:00 9.2 4 Este 9 Este 0 1023.5 -0.8 89
2020-01-13 04:00:00 9.5 6 Este 12 Este 0 1023.9 -1.2 89
2020-01-13 03:00:00 9.7 8 Este 14 Este 0 1023.8 -1.8 87
2020-01-13 02:00:00 10 5 Este 8 Este 0 1024.3 -1.2 85
2020-01-13 01:00:00 10.2 6 Este 10 Este 0 1025.1 -0.4 83
2020-01-13 00:00:00 10.3 6 Este 9 Este 0 1025.6 0.4 77
2020-01-12 23:00:00 10.9 6 Este 13 Este 0 1025.5 0.1 68
2020-01-12 22:00:00 11.1 8 Este 17 Este 0 1025.5 0.6 59
2020-01-12 21:00:00 12.4 10 Este 18 Este 0 1025.2 0.6 61
2020-01-12 20:00:00 13.2 5 Nordeste 12 Nordeste 0 1025.4 0.8 60
2020-01-12 19:00:00 14.7 5 Nordeste 12 Nordeste 0 1024.9 0.2 50
2020-01-12 18:00:00 16.1 6 Nordeste 17 Nordeste 0 1024.6 -0.6 46
2020-01-12 17:00:00 16.7 6 Nordeste 18 Nordeste 0 1024.6 -1.4 47
2020-01-12 16:00:00 16.5 4 Norte 15 Norte 0 1024.7 -2.4 46
2020-01-12 15:00:00 16 5 Nordeste 17 Nordeste 0 1025.2 -2.7 48
2020-01-12 14:00:00 15.3 7 Nordeste 19 Nordeste 0 1026 -1.9 51
2020-01-12 13:00:00 14.6 5 Norte 12 Este 0 1027.1 -0.2 58
2020-01-12 12:00:00 13.3 4 Norte 15 Nordeste 0 1027.9 0.9 68
2020-01-12 11:00:00 12 10 Este 19 Este 0 1027.9 1.1 69
2020-01-12 10:00:00 9.3 9 Nordeste 16 Nordeste 0 1027.3 0.7 75
2020-01-12 09:00:00 8.4 9 Este 15 Nordeste 0 1027 0.6 78
2020-01-12 08:00:00 8.5 6 Nordeste 14 Nordeste 0 1026.8 0.3 79
2020-01-12 07:00:00 8.5 6 Nordeste 13 Nordeste 0 1026.6 -0.2 81
2020-01-12 06:00:00 8.6 4 Nordeste 13 Este 0 1026.4 -0.3 84
2020-01-12 05:00:00 9.4 4 Nordeste 17 Este 0 1026.5 -0.1 83
2020-01-12 04:00:00 10.7 6 Este 15 Este 0 1026.8 0 80
2020-01-12 03:00:00 10.7 6 Este 13 Este 0 1026.7 -0.2 80
2020-01-12 02:00:00 10.8 5 Este 17 Este 0 1026.6 -0.2 77
2020-01-12 01:00:00 11.1 7 Este 18 Sudeste 0 1026.8 0 76
2020-01-12 00:00:00 11.2 11 Este 20 Este 0 1026.9 0.3 75
2020-01-11 23:00:00 11.5 10 Este 22 Este 0 1026.8 0.5 70
2020-01-11 22:00:00 12 8 Este 17 Este 0 1026.8 1.1 65
2020-01-11 21:00:00 12.6 12 Este 18 Este 0 1026.6 1.6 61
2020-01-11 20:00:00 13.2 10 Este 20 Este 0 1026.3 1.6 55
2020-01-11 19:00:00 14.3 8 Este 18 Este 0 1025.7 1.1 52
2020-01-11 18:00:00 16.6 9 Sudeste 21 Sudeste 0 1025 0.5 47
2020-01-11 17:00:00 18.3 11 Este 23 Sudeste 0 1024.7 -0.5 43
2020-01-11 16:00:00 18.7 10 Este 22 Este 0 1024.6 -1.4 46
2020-01-11 15:00:00 18 9 Sudeste 24 Sudeste 0 1024.5 -1.7 46
2020-01-11 14:00:00 17.5 8 Sudeste 22 Sur 0 1025.2 -1 53
2020-01-11 13:00:00 13.6 2 Norte 10 Nordeste 0 1026 0.6 63
2020-01-11 12:00:00 11.4 3 Norte 12 Este 0 1026.2 1.3 64
2020-01-11 11:00:00 10.1 4 Nordeste 14 Este 0 1026.2 1.9 63
2020-01-11 10:00:00 8.1 8 Nordeste 16 Nordeste 0 1025.4 1.7 64
2020-01-11 09:00:00 7.5 5 Nordeste 13 Nordeste 0 1024.9 1.4 66
2020-01-11 08:00:00 7.3 3 Norte 16 Este 0 1024.3 0.8 68
2020-01-11 07:00:00 7.6 9 Este 20 Nordeste 0 1023.7 -0.1 65
2020-01-11 06:00:00 7.8 11 Nordeste 20 Este 0 1023.5 -0.1 65
2020-01-11 05:00:00 8 5 Nordeste 15 Nordeste 0 1023.5 0.2 65
2020-01-11 04:00:00 8.7 6 Nordeste 17 Nordeste 0 1023.8 0.5 62
2020-01-11 03:00:00 9.1 8 Nordeste 14 Este 0 1023.6 0 62
2020-01-11 02:00:00 9.4 6 Nordeste 15 Este 0 1023.3 -0.2 63
2020-01-11 01:00:00 9.9 6 Nordeste 22 Nordeste 0 1023.3 -0.1 69
2020-01-11 00:00:00 10.5 9 Nordeste 19 Nordeste 0 1023.6 0.3 73
2020-01-10 23:00:00 11 6 Nordeste 20 Nordeste 0 1023.5 0.4 74
2020-01-10 22:00:00 11.2 10 Norte 18 Norte 0 1023.4 1 73
2020-01-10 21:00:00 11.7 5 Norte 12 Norte 0 1023.3 1.2 70
2020-01-10 20:00:00 12.6 4 Norte 10 Norte 0 1023.1 1 68
2020-01-10 19:00:00 13.4 6 Norte 15 Norte 0 1022.4 0.9 64
2020-01-10 18:00:00 14.1 4 Norte 18 Nordeste 0 1022.1 0.1 65
2020-01-10 17:00:00 14.6 11 Noroeste 18 Norte 0 1022.1 -0.6 66
2020-01-10 16:00:00 14.4 7 Noroeste 19 Noroeste 0 1021.5 -1.7 65
2020-01-10 15:00:00 13.7 12 Noroeste 22 Noroeste 0 1022 -2.5 64
2020-01-10 14:00:00 12.4 11 Noroeste 17 Oeste 0 1022.7 -1.9 68
2020-01-10 13:00:00 11.8 5 Nordeste 17 Nordeste 0 1023.2 -0.8 72
2020-01-10 12:00:00 10.6 5 Nordeste 13 Norte 0 1024.5 1.1 81
2020-01-10 11:00:00 9.4 4 Norte 14 Nordeste 0 1024.6 1.4 87
2020-01-10 10:00:00 9.4 7 Norte 17 Norte 0 1024 0.9 91
2020-01-10 09:00:00 8.9 3 Norte 10 Norte 0 1023.4 0.5 93
2020-01-10 08:00:00 9.4 5 Norte 14 Norte 0 1023.2 0.2 93
2020-01-10 07:00:00 10.4 8 Norte 15 Norte 0 1023.1 -0.2 93
2020-01-10 06:00:00 10.4 3 Norte 11 Noroeste 0 1022.9 -0.8 92
2020-01-10 05:00:00 9.7 0 Calma 4 Nordeste 0 1023 -0.7 91
2020-01-10 04:00:00 10.2 2 Nordeste 8 Noroeste 0 1023.3 -0.5 91
2020-01-10 03:00:00 9.7 3 Noroeste 9 Oeste 0 1023.7 -0.7 89
2020-01-10 02:00:00 9.7 0 Calma 8 Este 0 1023.7 -0.7 88
2020-01-10 01:00:00 10.3 4 Este 8 Sudeste 0 1023.8 -0.3 88
2020-01-10 00:00:00 11.1 3 Nordeste 5 Norte 0 1024.4 0.3 88
2020-01-09 23:00:00 11.6 3 Nordeste 5 Nordeste 0 1024.4 0.2 87
2020-01-09 22:00:00 11.9 2 Este 3 Nordeste 0 1024.1 0.1 86
2020-01-09 21:00:00 12.4 0 Calma 11 Noroeste 0 1024.1 0.9 84
2020-01-09 20:00:00 12.8 5 Noroeste 19 Oeste 0 1024.2 1.2 85
2020-01-09 19:00:00 13.4 9 Noroeste 18 Noroeste 0 1024 0.8 79
2020-01-09 18:00:00 14.1 8 Noroeste 13 Oeste 0 1023.2 0 79
2020-01-09 17:00:00 14.5 9 Noroeste 26 Noroeste 0 1023 -0.3 76
2020-01-09 16:00:00 15.6 13 Noroeste 20 Noroeste 0 1023.2 -1.3 67
2020-01-09 15:00:00 15.8 10 Oeste 18 Noroeste 0 1023.2 -2.2 64
2020-01-09 14:00:00 16.8 2 Oeste 14 Este 0 1023.3 -2.2 59
2020-01-09 13:00:00 15.2 0 Calma 8 Este 0 1024.5 -0.3 71
2020-01-09 12:00:00 13.3 0 Calma 7 Norte 0 1025.4 1.2 80
2020-01-09 11:00:00 12.3 2 Este 10 Sudeste 0 1025.5 1.6 85
2020-01-09 10:00:00 10.8 3 Este 6 Este 0 1024.8 1.2 90
2020-01-09 09:00:00 10 2 Oeste 8 Sur 0 1024.2 0.7 91
2020-01-09 08:00:00 10 3 Sudeste 8 Sur 0 1023.9 0.1 91
2020-01-09 07:00:00 10.2 4 Sur 12 Sudeste 0 1023.6 -0.4 90
2020-01-09 06:00:00 10.3 5 Sudeste 16 Sudeste 0 1023.5 -0.8 89
2020-01-09 05:00:00 10.4 5 Sudeste 13 Sur 0 1023.8 -0.5 88
2020-01-09 04:00:00 10.5 6 Sudeste 14 Sudeste 0 1024 -0.6 88
2020-01-09 03:00:00 10.4 5 Sur 17 Sudeste 0 1024.3 -0.4 88
2020-01-09 02:00:00 10.7 7 Sudeste 16 Sudeste 0 1024.3 -0.4 88
2020-01-09 01:00:00 10.6 8 Sudeste 16 Sudeste 0 1024.6 0.1 88
2020-01-09 00:00:00 10.6 7 Sudeste 15 Este 0 1024.7 0.7 86
2020-01-08 23:00:00 10.9 8 Este 13 Este 0 1024.7 1.1 85
2020-01-08 22:00:00 11.1 8 Este 13 Este 0 1024.5 1 84
2020-01-08 21:00:00 12.2 3 Sudeste 6 Sudeste 0 1024 0.6 79
2020-01-08 20:00:00 13.8 4 Sudoeste 6 Sudoeste 0 1023.6 0.3 73
2020-01-08 19:00:00 14 5 Sudoeste 8 Sudoeste 0 1023.5 0.1 66
2020-01-08 18:00:00 15.6 7 Sudoeste 9 Sudoeste 0 1023.4 -0.3 60
2020-01-08 17:00:00 16.3 4 Noroeste 12 Sudoeste 0 1023.3 -0.8 59
2020-01-08 16:00:00 16.3 7 Sudoeste 14 Oeste 0 1023.4 -1.4 60
2020-01-08 15:00:00 15.5 6 Noroeste 11 Noroeste 0 1023.7 -1.6 64
2020-01-08 14:00:00 14.5 5 Noroeste 10 Noroeste 0 1024.1 -1.6 63
2020-01-08 13:00:00 13.6 4 Noroeste 9 Noroeste 0 1024.8 -0.3 70
2020-01-08 12:00:00 12 0 Calma 5 Norte 0 1025.3 0.7 79
2020-01-08 11:00:00 10.3 3 Norte 7 Este 0 1025.7 1.2 83
2020-01-08 10:00:00 8.5 2 Este 5 Este 0 1025.1 0.8 88
2020-01-08 09:00:00 7.3 0 Calma 3 Nordeste 0 1024.6 0.3 88
2020-01-08 08:00:00 7.9 0 Calma 11 Este 0 1024.5 0.1 88
2020-01-08 07:00:00 8.1 7 Este 11 Este 0 1024.3 -0.3 89
2020-01-08 06:00:00 9 4 Este 10 Este 0 1024.3 -0.6 89
2020-01-08 05:00:00 9.1 6 Este 15 Este 0 1024.4 -0.6 89
2020-01-08 04:00:00 9.2 8 Este 15 Nordeste 0 1024.6 -1 89
2020-01-08 03:00:00 9.8 6 Este 11 Este 0 1024.9 -1.1 89
2020-01-08 02:00:00 10.2 8 Este 17 Sudeste 0 1025 -1 87
2020-01-08 01:00:00 10.8 8 Este 13 Este 0 1025.6 -0.4 85
2020-01-08 00:00:00 11.1 5 Este 18 Este 0 1026 0 83
2020-01-07 23:00:00 11.1 12 Este 18 Este 0 1026 0.1 81
2020-01-07 22:00:00 11.8 5 Este 11 Sudeste 0 1026 0.5 76
2020-01-07 21:00:00 12.4 6 Sudeste 15 Sudeste 0 1026 0.7 71
2020-01-07 20:00:00 13.6 6 Este 11 Este 0 1025.9 0.7 63
2020-01-07 19:00:00 15 5 Nordeste 14 Nordeste 0 1025.5 0.3 59
2020-01-07 18:00:00 16.2 5 Nordeste 17 Norte 0 1025.3 0.1 57
2020-01-07 17:00:00 17.8 6 Nordeste 18 Este 0 1025.2 -0.7 53
2020-01-07 16:00:00 18.5 9 Este 23 Este 0 1025.2 -1.1 50
2020-01-07 15:00:00 18.1 9 Este 22 Este 0 1025.2 -2.1 52
2020-01-07 14:00:00 17.5 10 Este 24 Este 0 1025.9 -1.7 57
2020-01-07 13:00:00 15.5 11 Este 24 Este 0 1026.3 -0.8 67
2020-01-07 12:00:00 13 3 Este 8 Este 0 1027.3 0.8 79
2020-01-07 11:00:00 11 3 Norte 6 Nordeste 0 1027.6 1.4 84
2020-01-07 10:00:00 9.7 3 Este 8 Este 0 1027.1 0.9 86
2020-01-07 09:00:00 8.8 4 Nordeste 11 Norte 0 1026.5 0.7 88
2020-01-07 08:00:00 9.2 4 Nordeste 17 Este 0 1026.2 0.5 86
2020-01-07 07:00:00 10.2 13 Este 20 Nordeste 0 1026.2 0.2 83
2020-01-07 06:00:00 9.1 12 Este 19 Este 0 1025.8 -0.1 87
2020-01-07 05:00:00 10 12 Este 20 Nordeste 0 1025.7 -0.3 86
2020-01-07 04:00:00 10.2 11 Este 18 Este 0 1026 -0.4 86
2020-01-07 03:00:00 10.3 9 Este 17 Este 0 1025.9 -0.6 86
2020-01-07 02:00:00 10.3 9 Este 20 Este 0 1026 -0.4 85
2020-01-07 01:00:00 11.1 12 Este 18 Este 0 1026.4 0.3 83
2020-01-07 00:00:00 11.3 12 Este 21 Este 0 1026.5 1 82
2020-01-06 23:00:00 11.4 10 Este 15 Este 0 1026.4 1.4 80
2020-01-06 22:00:00 11.5 9 Este 19 Este 0 1026.1 1.7 77
2020-01-06 21:00:00 12 6 Este 13 Este 0 1025.5 1.5 72
2020-01-06 20:00:00 12.9 7 Este 17 Este 0 1025 1.5 67
2020-01-06 19:00:00 14.3 7 Este 14 Nordeste 0 1024.4 1 59
2020-01-06 18:00:00 16.1 9 Este 18 Este 0 1024 0 55
2020-01-06 17:00:00 16.8 10 Este 18 Este 0 1023.5 -1 54
2020-01-06 16:00:00 16.7 6 Nordeste 15 Nordeste 0 1023.4 -2 55
2020-01-06 15:00:00 17.1 3 Nordeste 19 Nordeste 0 1024 -2.2 54
2020-01-06 14:00:00 15.7 3 Nordeste 14 Nordeste 0 1024.5 -1.5 64
2020-01-06 13:00:00 14.1 5 Nordeste 13 Nordeste 0 1025.4 0.3 71
2020-01-06 12:00:00 12 3 Norte 11 Nordeste 0 1026.2 1.5 78
2020-01-06 11:00:00 10.8 4 Norte 9 Norte 0 1026 1.8 80
2020-01-06 10:00:00 9.4 5 Nordeste 15 Nordeste 0 1025.1 1.4 81